createdAt,value
2017-03-05T00:00:19.174Z,59.06
2017-03-05T00:00:59.866Z,58.78
2017-03-05T00:01:40.487Z,58.5
2017-03-05T00:02:21.117Z,59.16
2017-03-05T00:03:01.777Z,58.78
2017-03-05T00:03:42.401Z,58.5
2017-03-05T00:04:23.039Z,58.59
2017-03-05T00:05:03.691Z,58.4
2017-03-05T00:05:44.335Z,58.97
2017-03-05T00:06:24.936Z,58.78
2017-03-05T00:07:05.676Z,58.87
2017-03-05T00:07:46.220Z,58.87
2017-03-05T00:08:26.826Z,59.35
2017-03-05T00:09:07.474Z,59.16
2017-03-05T00:09:48.090Z,59.54
2017-03-05T00:10:28.730Z,59.35
2017-03-05T00:11:09.339Z,59.16
2017-03-05T00:11:49.960Z,59.06
2017-03-05T00:12:30.579Z,59.16
2017-03-05T00:13:11.218Z,59.26
2017-03-05T00:13:51.874Z,59.16
2017-03-05T00:14:32.492Z,59.35
2017-03-05T00:15:13.112Z,59.35
2017-03-05T00:15:53.766Z,59.26
2017-03-05T00:16:34.409Z,59.45
2017-03-05T00:17:15.008Z,59.64
2017-03-05T00:17:55.662Z,60.02
2017-03-05T00:18:36.281Z,59.83
2017-03-05T00:19:16.936Z,59.92
2017-03-05T00:19:57.540Z,59.64
2017-03-05T00:20:38.151Z,59.64
2017-03-05T00:21:18.774Z,59.16
2017-03-05T00:21:59.456Z,59.54
2017-03-05T00:22:40.190Z,59.74
2017-03-05T00:23:20.802Z,60.21
2017-03-05T00:24:01.456Z,60.21
2017-03-05T00:24:42.111Z,59.64
2017-03-05T00:25:22.838Z,59.54
2017-03-05T00:26:03.428Z,60.02
2017-03-05T00:26:44.082Z,60.11
2017-03-05T00:27:24.762Z,60.11
2017-03-05T00:28:05.391Z,59.74
2017-03-05T00:28:45.980Z,59.64
2017-03-05T00:29:26.646Z,60.11
2017-03-05T00:30:07.304Z,60.11
2017-03-05T00:30:47.888Z,60.11
2017-03-05T00:31:28.606Z,60.21
2017-03-05T00:32:09.189Z,59.92
2017-03-05T00:32:49.825Z,59.92
2017-03-05T00:33:30.462Z,59.92
2017-03-05T00:34:11.065Z,60.02
2017-03-05T00:34:51.700Z,60.11
2017-03-05T00:35:32.334Z,60.21
2017-03-05T00:36:13.003Z,60.11
2017-03-05T00:36:53.645Z,59.74
2017-03-05T00:37:34.322Z,60.21
2017-03-05T00:38:14.945Z,60.21
2017-03-05T00:38:55.827Z,60.21
2017-03-05T00:39:36.493Z,60.02
2017-03-05T00:40:17.209Z,60.21
2017-03-05T00:40:57.891Z,60.4
2017-03-05T00:41:38.518Z,60.11
2017-03-05T00:42:19.162Z,60.3
2017-03-05T00:42:59.777Z,60.02
2017-03-05T00:43:40.431Z,60.3
2017-03-05T00:44:21.094Z,60.21
2017-03-05T00:45:01.751Z,60.21
2017-03-05T00:45:42.542Z,60.3
2017-03-05T00:46:23.147Z,60.21
2017-03-05T00:47:03.883Z,60.4
2017-03-05T00:47:44.501Z,60.3
2017-03-05T00:48:25.142Z,60.21
2017-03-05T00:49:05.783Z,60.88
2017-03-05T00:49:46.422Z,60.69
2017-03-05T00:50:27.062Z,60.59
2017-03-05T00:51:07.700Z,61.07
2017-03-05T00:51:48.329Z,60.78
2017-03-05T00:52:29.015Z,60.78
2017-03-05T00:53:09.637Z,60.85
2017-03-05T00:53:50.303Z,60.66
2017-03-05T00:54:31.108Z,61.07
2017-03-05T00:55:11.664Z,61.54
2017-03-05T00:55:52.248Z,61.61
2017-03-05T00:56:32.856Z,61.22
2017-03-05T00:57:13.515Z,61.32
2017-03-05T00:57:54.157Z,61.61
2017-03-05T00:58:34.774Z,61.42
2017-03-05T00:59:15.422Z,61.61
2017-03-05T00:59:56.070Z,61.42
2017-03-05T01:00:36.719Z,61.32
2017-03-05T01:01:17.338Z,61.42
2017-03-05T01:01:57.973Z,61.61
2017-03-05T01:02:38.582Z,61.51
2017-03-05T01:03:19.244Z,60.66
2017-03-05T01:03:59.847Z,60.94
2017-03-05T01:04:40.474Z,60.88
2017-03-05T01:05:21.137Z,60.88
2017-03-05T01:06:01.702Z,60.78
2017-03-05T01:06:42.350Z,60.75
2017-03-05T01:07:22.948Z,61.13
2017-03-05T01:08:03.572Z,60.85
2017-03-05T01:08:44.244Z,60.85
2017-03-05T01:09:24.861Z,61.04
2017-03-05T01:10:05.501Z,60.75
2017-03-05T01:10:46.159Z,60.85
2017-03-05T01:11:26.758Z,60.97
2017-03-05T01:12:07.478Z,61.13
2017-03-05T01:12:48.079Z,60.78
2017-03-05T01:13:28.710Z,61.16
2017-03-05T01:14:09.327Z,60.97
2017-03-05T01:14:49.983Z,60.78
2017-03-05T01:15:30.618Z,60.78
2017-03-05T01:16:11.239Z,60.3
2017-03-05T01:16:51.838Z,60.49
2017-03-05T01:17:32.488Z,60.59
2017-03-05T01:18:13.063Z,60.56
2017-03-05T01:18:53.808Z,60.49
2017-03-05T01:19:34.450Z,60.4
2017-03-05T01:20:15.395Z,60.4
2017-03-05T01:20:55.967Z,60.59
2017-03-05T01:21:36.644Z,60.21
2017-03-05T01:22:17.420Z,60.21
2017-03-05T01:22:58.057Z,60.11
2017-03-05T01:23:38.673Z,60.11
2017-03-05T01:24:19.294Z,60.21
2017-03-05T01:24:59.877Z,60.49
2017-03-05T01:25:40.514Z,60.3
2017-03-05T01:26:21.109Z,60.4
2017-03-05T01:27:01.771Z,60.4
2017-03-05T01:27:42.389Z,60.3
2017-03-05T01:28:22.995Z,60.21
2017-03-05T01:29:03.649Z,60.21
2017-03-05T01:29:44.270Z,60.08
2017-03-05T01:30:24.895Z,60.11
2017-03-05T01:31:05.554Z,60.08
2017-03-05T01:31:46.185Z,60.56
2017-03-05T01:32:26.792Z,60.18
2017-03-05T01:33:07.422Z,59.99
2017-03-05T01:33:48.092Z,59.89
2017-03-05T01:34:28.732Z,59.92
2017-03-05T01:35:09.427Z,60.18
2017-03-05T01:35:50.045Z,60.08
2017-03-05T01:36:30.680Z,59.89
2017-03-05T01:37:11.362Z,60.08
2017-03-05T01:37:51.979Z,59.99
2017-03-05T01:38:32.636Z,60.18
2017-03-05T01:39:13.336Z,60.18
2017-03-05T01:39:53.961Z,60.18
2017-03-05T01:40:34.564Z,60.21
2017-03-05T01:41:15.196Z,60.27
2017-03-05T01:41:55.816Z,60.18
2017-03-05T01:42:36.433Z,59.99
2017-03-05T01:43:17.137Z,60.18
2017-03-05T01:43:57.772Z,59.99
2017-03-05T01:44:38.462Z,60.27
2017-03-05T01:45:19.056Z,60.27
2017-03-05T01:45:59.683Z,60.18
2017-03-05T01:46:40.286Z,60.46
2017-03-05T01:47:20.919Z,60.37
2017-03-05T01:48:01.594Z,60.18
2017-03-05T01:48:42.230Z,60.27
2017-03-05T01:49:22.867Z,60.75
2017-03-05T01:50:03.643Z,60.85
2017-03-05T01:50:44.385Z,60.56
2017-03-05T01:51:25.087Z,61.04
2017-03-05T01:52:05.731Z,60.66
2017-03-05T01:52:46.399Z,61.04
2017-03-05T01:53:27.154Z,61.22
2017-03-05T01:54:07.933Z,60.75
2017-03-05T01:54:48.612Z,60.94
2017-03-05T01:55:29.205Z,60.94
2017-03-05T01:56:09.928Z,60.66
2017-03-05T01:56:50.528Z,61.04
2017-03-05T01:57:31.153Z,61.04
2017-03-05T01:58:11.776Z,60.94
2017-03-05T01:58:52.367Z,61.22
2017-03-05T01:59:32.996Z,61.51
2017-03-05T02:00:13.652Z,61.51
2017-03-05T02:00:54.288Z,61.22
2017-03-05T02:01:34.883Z,61.32
2017-03-05T02:02:15.510Z,61.42
2017-03-05T02:02:56.128Z,61.51
2017-03-05T02:03:36.789Z,61.42
2017-03-05T02:04:17.427Z,61.61
2017-03-05T02:04:58.065Z,61.9
2017-03-05T02:05:38.692Z,62.08
2017-03-05T02:06:19.333Z,61.9
2017-03-05T02:06:59.932Z,62.08
2017-03-05T02:07:40.568Z,62.08
2017-03-05T02:08:21.220Z,61.9
2017-03-05T02:09:01.807Z,61.61
2017-03-05T02:09:42.442Z,61.99
2017-03-05T02:10:23.059Z,62.27
2017-03-05T02:11:03.745Z,62.18
2017-03-05T02:11:44.356Z,62.27
2017-03-05T02:12:24.972Z,62.65
2017-03-05T02:13:05.568Z,62.18
2017-03-05T02:13:46.167Z,62.56
2017-03-05T02:14:26.812Z,62.37
2017-03-05T02:15:07.419Z,62.08
2017-03-05T02:15:48.101Z,62.37
2017-03-05T02:16:28.723Z,62.27
2017-03-05T02:17:09.400Z,62.08
2017-03-05T02:17:49.991Z,62.08
2017-03-05T02:18:30.615Z,62.27
2017-03-05T02:19:11.219Z,62.18
2017-03-05T02:19:51.853Z,62.27
2017-03-05T02:20:32.494Z,62.18
2017-03-05T02:21:13.144Z,62.18
2017-03-05T02:21:53.779Z,62.08
2017-03-05T02:22:34.363Z,61.99
2017-03-05T02:23:14.982Z,61.99
2017-03-05T02:23:55.588Z,62.18
2017-03-05T02:24:36.209Z,62.18
2017-03-05T02:25:16.833Z,62.18
2017-03-05T02:25:57.420Z,62.27
2017-03-05T02:26:38.041Z,62.37
2017-03-05T02:27:18.723Z,62.27
2017-03-05T02:27:59.303Z,62.18
2017-03-05T02:28:39.918Z,62.37
2017-03-05T02:29:20.513Z,61.99
2017-03-05T02:30:01.137Z,62.27
2017-03-05T02:30:41.713Z,62.27
2017-03-05T02:31:22.329Z,61.9
2017-03-05T02:32:02.951Z,61.9
2017-03-05T02:32:43.578Z,61.9
2017-03-05T02:33:24.220Z,61.99
2017-03-05T02:34:04.839Z,61.8
2017-03-05T02:34:45.432Z,62.02
2017-03-05T02:35:26.037Z,61.93
2017-03-05T02:36:06.639Z,62.02
2017-03-05T02:36:47.245Z,62.02
2017-03-05T02:37:27.846Z,62.12
2017-03-05T02:38:08.522Z,62.21
2017-03-05T02:38:49.159Z,61.83
2017-03-05T02:39:29.774Z,61.73
2017-03-05T02:40:10.395Z,61.35
2017-03-05T02:40:51.053Z,61.25
2017-03-05T02:41:31.648Z,61.73
2017-03-05T02:42:12.264Z,61.45
2017-03-05T02:42:52.859Z,61.83
2017-03-05T02:43:33.515Z,61.25
2017-03-05T02:44:14.133Z,61.35
2017-03-05T02:44:54.772Z,61.54
2017-03-05T02:45:35.383Z,61.25
2017-03-05T02:46:15.975Z,61.25
2017-03-05T02:46:56.568Z,61.45
2017-03-05T02:47:37.164Z,61.16
2017-03-05T02:48:17.805Z,61.45
2017-03-05T02:48:58.384Z,61.07
2017-03-05T02:49:38.974Z,60.78
2017-03-05T02:50:19.573Z,60.69
2017-03-05T02:51:00.192Z,60.97
2017-03-05T02:51:40.800Z,60.97
2017-03-05T02:52:21.413Z,60.97
2017-03-05T02:53:02.058Z,60.88
2017-03-05T02:53:42.779Z,60.88
2017-03-05T02:54:23.402Z,61.25
2017-03-05T02:55:04.056Z,60.78
2017-03-05T02:55:44.682Z,60.97
2017-03-05T02:56:25.280Z,60.97
2017-03-05T02:57:05.907Z,60.88
2017-03-05T02:57:46.536Z,60.88
2017-03-05T02:58:27.159Z,61.07
2017-03-05T02:59:07.764Z,60.97
2017-03-05T02:59:48.377Z,60.78
2017-03-05T03:00:29.043Z,60.88
2017-03-05T03:01:09.632Z,61.07
2017-03-05T03:01:50.251Z,61.16
2017-03-05T03:02:30.863Z,60.97
2017-03-05T03:03:11.468Z,61.64
2017-03-05T03:03:52.111Z,61.45
2017-03-05T03:04:32.731Z,61.45
2017-03-05T03:05:13.347Z,61.54
2017-03-05T03:05:53.969Z,61.35
2017-03-05T03:06:34.602Z,61.64
2017-03-05T03:07:15.201Z,61.35
2017-03-05T03:07:55.828Z,61.54
2017-03-05T03:08:36.463Z,61.64
2017-03-05T03:09:17.074Z,61.54
2017-03-05T03:09:57.732Z,61.54
2017-03-05T03:10:38.325Z,61.73
2017-03-05T03:11:18.913Z,61.83
2017-03-05T03:11:59.535Z,61.93
2017-03-05T03:12:40.183Z,61.93
2017-03-05T03:13:20.810Z,61.93
2017-03-05T03:14:01.429Z,61.83
2017-03-05T03:14:42.081Z,61.83
2017-03-05T03:15:22.684Z,61.73
2017-03-05T03:16:03.327Z,61.73
2017-03-05T03:16:43.938Z,61.45
2017-03-05T03:17:24.594Z,61.35
2017-03-05T03:18:05.201Z,61.54
2017-03-05T03:18:45.804Z,61.45
2017-03-05T03:19:26.406Z,61.35
2017-03-05T03:20:07.026Z,61.35
2017-03-05T03:20:47.635Z,61.35
2017-03-05T03:21:28.262Z,61.83
2017-03-05T03:22:08.904Z,61.64
2017-03-05T03:22:49.541Z,61.45
2017-03-05T03:23:30.197Z,61.35
2017-03-05T03:24:10.804Z,61.35
2017-03-05T03:24:51.419Z,61.54
2017-03-05T03:25:32.089Z,61.73
2017-03-05T03:26:12.735Z,61.35
2017-03-05T03:26:53.371Z,61.45
2017-03-05T03:27:33.965Z,61.45
2017-03-05T03:28:14.562Z,61.64
2017-03-05T03:28:55.230Z,61.83
2017-03-05T03:29:35.858Z,61.93
2017-03-05T03:30:16.529Z,62.12
2017-03-05T03:30:57.132Z,62.3
2017-03-05T03:31:37.782Z,61.93
2017-03-05T03:32:18.409Z,61.93
2017-03-05T03:32:59.015Z,62.3
2017-03-05T03:33:39.598Z,62.68
2017-03-05T03:34:20.166Z,62.3
2017-03-05T03:35:00.811Z,63.07
2017-03-05T03:35:41.429Z,63.07
2017-03-05T03:36:22.032Z,62.97
2017-03-05T03:37:02.676Z,63.54
2017-03-05T03:37:43.311Z,63.45
2017-03-05T03:38:23.900Z,63.73
2017-03-05T03:39:04.533Z,63.83
2017-03-05T03:39:45.207Z,63.83
2017-03-05T03:40:25.825Z,64.02
2017-03-05T03:41:06.480Z,64.12
2017-03-05T03:41:47.078Z,64.21
2017-03-05T03:42:27.708Z,64.59
2017-03-05T03:43:08.329Z,64.5
2017-03-05T03:43:48.981Z,64.59
2017-03-05T03:44:29.678Z,64.69
2017-03-05T03:45:10.307Z,64.87
2017-03-05T03:45:50.948Z,65.26
2017-03-05T03:46:31.614Z,65.73
2017-03-05T03:47:12.195Z,65.92
2017-03-05T03:47:52.808Z,65.83
2017-03-05T03:48:33.418Z,65.92
2017-03-05T03:49:14.014Z,66.5
2017-03-05T03:49:54.618Z,66.88
2017-03-05T03:50:35.232Z,67.07
2017-03-05T03:51:15.869Z,67.35
2017-03-05T03:51:56.515Z,68.02
2017-03-05T03:52:37.114Z,68.3
2017-03-05T03:53:17.726Z,68.69
2017-03-05T03:53:58.330Z,68.98
2017-03-05T03:54:38.955Z,68.69
2017-03-05T03:55:19.572Z,69.45
2017-03-05T03:56:00.265Z,69.17
2017-03-05T03:56:40.901Z,69.26
2017-03-05T03:57:21.521Z,69.54
2017-03-05T03:58:02.160Z,69.35
2017-03-05T03:58:42.810Z,69.93
2017-03-05T03:59:23.415Z,69.45
2017-03-05T04:00:04.062Z,70.02
2017-03-05T04:00:44.682Z,70.08
2017-03-05T04:01:25.313Z,70.08
2017-03-05T04:02:05.908Z,70.18
2017-03-05T04:02:46.529Z,70.27
2017-03-05T04:03:27.140Z,70.65
2017-03-05T04:04:07.768Z,70.84
2017-03-05T04:04:48.414Z,70.56
2017-03-05T04:05:28.986Z,71.03
2017-03-05T04:06:09.592Z,70.75
2017-03-05T04:06:50.251Z,70.75
2017-03-05T04:07:30.840Z,71.22
2017-03-05T04:08:11.448Z,71.13
2017-03-05T04:08:52.049Z,71.22
2017-03-05T04:09:32.681Z,71.22
2017-03-05T04:10:13.306Z,71.13
2017-03-05T04:10:53.963Z,71.22
2017-03-05T04:11:34.562Z,71.32
2017-03-05T04:12:15.202Z,71.22
2017-03-05T04:12:55.823Z,71.22
2017-03-05T04:13:36.448Z,71.32
2017-03-05T04:14:17.053Z,71.42
2017-03-05T04:14:57.708Z,71.32
2017-03-05T04:15:38.314Z,71.13
2017-03-05T04:16:18.926Z,71.42
2017-03-05T04:16:59.533Z,71.22
2017-03-05T04:17:40.149Z,71.32
2017-03-05T04:18:20.791Z,71.32
2017-03-05T04:19:01.463Z,71.51
2017-03-05T04:19:42.139Z,71.42
2017-03-05T04:20:22.733Z,71.42
2017-03-05T04:21:03.369Z,71.51
2017-03-05T04:21:43.925Z,71.8
2017-03-05T04:22:24.542Z,71.51
2017-03-05T04:23:05.141Z,71.89
2017-03-05T04:23:45.780Z,71.89
2017-03-05T04:24:26.441Z,71.89
2017-03-05T04:25:07.163Z,71.98
2017-03-05T04:25:47.746Z,72.08
2017-03-05T04:26:28.354Z,71.8
2017-03-05T04:27:08.994Z,72.08
2017-03-05T04:27:49.670Z,72.17
2017-03-05T04:28:30.304Z,71.98
2017-03-05T04:29:10.918Z,72.17
2017-03-05T04:29:51.541Z,71.8
2017-03-05T04:30:32.155Z,72.27
2017-03-05T04:31:12.798Z,72.46
2017-03-05T04:31:53.443Z,72.37
2017-03-05T04:32:34.057Z,72.37
2017-03-05T04:33:14.686Z,72.17
2017-03-05T04:33:55.316Z,72.56
2017-03-05T04:34:35.998Z,72.27
2017-03-05T04:35:16.614Z,72.46
2017-03-05T04:35:57.258Z,72.46
2017-03-05T04:36:37.875Z,72.37
2017-03-05T04:37:18.493Z,72.46
2017-03-05T04:37:59.113Z,72.46
2017-03-05T04:38:39.721Z,72.37
2017-03-05T04:39:20.316Z,72.46
2017-03-05T04:40:00.937Z,72.46
2017-03-05T04:40:41.566Z,72.56
2017-03-05T04:41:22.183Z,72.17
2017-03-05T04:42:02.807Z,72.46
2017-03-05T04:42:43.407Z,72.65
2017-03-05T04:43:23.999Z,72.46
2017-03-05T04:44:04.599Z,72.56
2017-03-05T04:44:45.198Z,72.75
2017-03-05T04:45:25.807Z,72.46
2017-03-05T04:46:06.422Z,72.46
2017-03-05T04:46:47.027Z,73.03
2017-03-05T04:47:27.616Z,72.27
2017-03-05T04:48:08.246Z,72.75
2017-03-05T04:48:48.877Z,72.85
2017-03-05T04:49:29.490Z,72.94
2017-03-05T04:50:10.117Z,73.03
2017-03-05T04:50:50.784Z,73.13
2017-03-05T04:51:31.363Z,73.13
2017-03-05T04:52:11.993Z,72.94
2017-03-05T04:52:52.614Z,73.03
2017-03-05T04:53:33.224Z,73.03
2017-03-05T04:54:13.849Z,73.13
2017-03-05T04:54:54.474Z,73.13
2017-03-05T04:55:35.061Z,73.13
2017-03-05T04:56:15.716Z,72.85
2017-03-05T04:56:56.359Z,73.13
2017-03-05T04:57:36.983Z,72.85
2017-03-05T04:58:17.610Z,72.85
2017-03-05T04:58:58.213Z,72.94
2017-03-05T04:59:38.826Z,72.85
2017-03-05T05:00:19.443Z,72.94
2017-03-05T05:01:00.083Z,73.13
2017-03-05T05:01:40.751Z,73.03
2017-03-05T05:02:21.337Z,72.94
2017-03-05T05:03:01.934Z,72.94
2017-03-05T05:03:42.576Z,73.03
2017-03-05T05:04:23.199Z,73.13
2017-03-05T05:05:03.814Z,72.94
2017-03-05T05:05:44.429Z,73.13
2017-03-05T05:06:25.043Z,73.03
2017-03-05T05:07:05.727Z,72.94
2017-03-05T05:07:46.323Z,73.03
2017-03-05T05:08:26.954Z,73.03
2017-03-05T05:09:07.594Z,73.13
2017-03-05T05:09:48.212Z,73.03
2017-03-05T05:10:28.847Z,72.85
2017-03-05T05:11:09.462Z,72.85
2017-03-05T05:11:50.088Z,72.85
2017-03-05T05:12:30.706Z,72.85
2017-03-05T05:13:11.409Z,72.94
2017-03-05T05:13:52.020Z,72.94
2017-03-05T05:14:32.617Z,73.13
2017-03-05T05:15:13.264Z,73.13
2017-03-05T05:15:53.869Z,73.03
2017-03-05T05:16:34.482Z,73.13
2017-03-05T05:17:15.134Z,73.51
2017-03-05T05:17:55.809Z,73.13
2017-03-05T05:18:36.490Z,73.03
2017-03-05T05:19:17.090Z,73.13
2017-03-05T05:19:57.724Z,72.71
2017-03-05T05:20:38.364Z,72.52
2017-03-05T05:21:19.104Z,72.85
2017-03-05T05:21:59.737Z,72.33
2017-03-05T05:22:40.375Z,72.42
2017-03-05T05:23:21.006Z,72.24
2017-03-05T05:24:01.629Z,72.14
2017-03-05T05:24:42.288Z,72.42
2017-03-05T05:25:22.927Z,72.52
2017-03-05T05:26:03.584Z,72.71
2017-03-05T05:26:44.201Z,72.14
2017-03-05T05:27:24.843Z,72.24
2017-03-05T05:28:05.497Z,72.33
2017-03-05T05:28:46.064Z,72.33
2017-03-05T05:29:26.694Z,72.52
2017-03-05T05:30:07.310Z,72.52
2017-03-05T05:30:47.951Z,72.62
2017-03-05T05:31:28.568Z,72.24
2017-03-05T05:32:09.188Z,72.33
2017-03-05T05:32:49.808Z,72.33
2017-03-05T05:33:30.432Z,72.52
2017-03-05T05:34:11.045Z,72.33
2017-03-05T05:34:51.666Z,72.33
2017-03-05T05:35:32.416Z,72.05
2017-03-05T05:36:12.935Z,72.14
2017-03-05T05:36:53.536Z,72.05
2017-03-05T05:37:34.190Z,71.86
2017-03-05T05:38:14.858Z,71.86
2017-03-05T05:38:55.497Z,71.86
2017-03-05T05:39:36.094Z,71.57
2017-03-05T05:40:16.711Z,71.47
2017-03-05T05:40:57.315Z,71.76
2017-03-05T05:41:37.992Z,71.57
2017-03-05T05:42:18.668Z,71.67
2017-03-05T05:42:59.336Z,71.57
2017-03-05T05:43:40.006Z,71.57
2017-03-05T05:44:20.629Z,71.57
2017-03-05T05:45:01.266Z,71.47
2017-03-05T05:45:41.894Z,71.76
2017-03-05T05:46:22.472Z,71.38
2017-03-05T05:47:03.069Z,71.38
2017-03-05T05:47:43.650Z,71.38
2017-03-05T05:48:24.320Z,71.57
2017-03-05T05:49:04.880Z,71.57
2017-03-05T05:49:45.505Z,71.67
2017-03-05T05:50:26.127Z,71.57
2017-03-05T05:51:06.736Z,71.57
2017-03-05T05:51:47.328Z,71.57
2017-03-05T05:52:27.960Z,71.57
2017-03-05T05:53:08.603Z,71.28
2017-03-05T05:53:49.198Z,71.57
2017-03-05T05:54:29.850Z,71.28
2017-03-05T05:55:10.455Z,71.19
2017-03-05T05:55:51.046Z,71.19
2017-03-05T05:56:31.672Z,71.38
2017-03-05T05:57:12.253Z,71
2017-03-05T05:57:52.848Z,70.81
2017-03-05T05:58:33.514Z,70.81
2017-03-05T05:59:14.101Z,70.43
2017-03-05T05:59:54.716Z,70.9
2017-03-05T06:00:35.376Z,70.62
2017-03-05T06:01:15.954Z,70.72
2017-03-05T06:01:56.557Z,70.81
2017-03-05T06:02:37.162Z,70.9
2017-03-05T06:03:17.765Z,70.62
2017-03-05T06:03:58.363Z,70.62
2017-03-05T06:04:38.966Z,70.62
2017-03-05T06:05:19.554Z,70.62
2017-03-05T06:06:00.140Z,70.62
2017-03-05T06:06:40.719Z,70.52
2017-03-05T06:07:21.304Z,70.62
2017-03-05T06:08:01.885Z,70.81
2017-03-05T06:08:42.483Z,70.62
2017-03-05T06:09:23.068Z,70.05
2017-03-05T06:10:03.664Z,70.52
2017-03-05T06:10:44.296Z,70.14
2017-03-05T06:11:24.863Z,69.85
2017-03-05T06:12:05.625Z,70.05
2017-03-05T06:12:46.305Z,70.05
2017-03-05T06:13:26.902Z,70.05
2017-03-05T06:14:07.479Z,70.05
2017-03-05T06:14:48.068Z,70.33
2017-03-05T06:15:28.653Z,70.24
2017-03-05T06:16:09.277Z,70.05
2017-03-05T06:16:49.852Z,69.95
2017-03-05T06:17:30.453Z,70.05
2017-03-05T06:18:11.050Z,70.14
2017-03-05T06:18:51.629Z,69.57
2017-03-05T06:19:32.258Z,70.24
2017-03-05T06:20:12.861Z,70.33
2017-03-05T06:20:53.466Z,69.57
2017-03-05T06:21:34.069Z,69.67
2017-03-05T06:22:14.664Z,69.76
2017-03-05T06:22:55.245Z,69.38
2017-03-05T06:23:35.830Z,69.76
2017-03-05T06:24:16.463Z,69.38
2017-03-05T06:24:57.081Z,69.85
2017-03-05T06:25:37.657Z,69.85
2017-03-05T06:26:18.263Z,69.76
2017-03-05T06:26:58.858Z,69.48
2017-03-05T06:27:41.020Z,69.48
2017-03-05T06:28:24.189Z,69.38
2017-03-05T06:29:05.982Z,69.48
2017-03-05T06:29:47.483Z,69.38
2017-03-05T06:30:28.678Z,69.38
2017-03-05T06:31:09.876Z,69.19
2017-03-05T06:31:50.457Z,69.19
2017-03-05T06:32:31.053Z,69.38
2017-03-05T06:33:11.679Z,69.19
2017-03-05T06:33:52.246Z,69.48
2017-03-05T06:34:33.763Z,69.29
2017-03-05T06:35:14.504Z,69.19
2017-03-05T06:35:55.429Z,69.48
2017-03-05T06:36:36.065Z,69.48
2017-03-05T06:37:16.769Z,69.29
2017-03-05T06:37:57.399Z,69.57
2017-03-05T06:38:37.960Z,68.9
2017-03-05T06:39:20.015Z,69.38
2017-03-05T06:40:04.911Z,68.9
2017-03-05T06:40:45.559Z,68.71
2017-03-05T06:41:26.153Z,68.9
2017-03-05T06:42:06.858Z,68.81
2017-03-05T06:42:47.484Z,68.9
2017-03-05T06:43:28.054Z,68.81
2017-03-05T06:44:08.633Z,68.9
2017-03-05T06:44:49.229Z,68.81
2017-03-05T06:45:29.840Z,68.71
2017-03-05T06:46:10.433Z,69.38
2017-03-05T06:46:51.016Z,68.9
2017-03-05T06:47:31.619Z,69.38
2017-03-05T06:48:12.236Z,69.19
2017-03-05T06:48:52.845Z,69.29
2017-03-05T06:49:33.503Z,69.29
2017-03-05T06:50:14.072Z,69.57
2017-03-05T06:50:54.699Z,69.1
2017-03-05T06:51:35.273Z,69.1
2017-03-05T06:52:15.894Z,68.81
2017-03-05T06:52:56.470Z,69.38
2017-03-05T06:53:37.042Z,69
2017-03-05T06:54:17.665Z,69.48
2017-03-05T06:54:58.228Z,69.29
2017-03-05T06:55:38.838Z,69.1
2017-03-05T06:56:19.436Z,69.1
2017-03-05T06:57:00.026Z,69.57
2017-03-05T06:57:40.602Z,69.48
2017-03-05T06:58:21.244Z,69.48
2017-03-05T06:59:01.885Z,69.38
2017-03-05T06:59:42.547Z,69.1
2017-03-05T07:00:23.136Z,69.57
2017-03-05T07:01:03.763Z,69.67
2017-03-05T07:01:44.349Z,69.76
2017-03-05T07:02:25.472Z,69.29
2017-03-05T07:03:06.060Z,69.57
2017-03-05T07:03:46.681Z,69.67
2017-03-05T07:04:27.940Z,69.19
2017-03-05T07:05:08.530Z,69.29
2017-03-05T07:05:49.147Z,69.38
2017-03-05T07:06:29.734Z,69.1
2017-03-05T07:07:10.334Z,69.48
2017-03-05T07:07:50.949Z,69.38
2017-03-05T07:08:31.572Z,69.19
2017-03-05T07:09:12.164Z,69.29
2017-03-05T07:09:52.823Z,69.57
2017-03-05T07:10:33.774Z,69.48
2017-03-05T07:11:14.551Z,69.57
2017-03-05T07:11:55.193Z,69.38
2017-03-05T07:12:35.783Z,69.38
2017-03-05T07:13:16.390Z,69.38
2017-03-05T07:13:57.001Z,69.57
2017-03-05T07:14:37.657Z,69.48
2017-03-05T07:15:18.305Z,69.38
2017-03-05T07:15:58.955Z,69.76
2017-03-05T07:16:39.614Z,70.33
2017-03-05T07:17:20.243Z,70.05
2017-03-05T07:18:00.849Z,69.85
2017-03-05T07:18:41.457Z,70.05
2017-03-05T07:19:22.094Z,70.14
2017-03-05T07:20:02.726Z,69.85
2017-03-05T07:20:44.745Z,69.85
2017-03-05T07:21:27.518Z,70.14
2017-03-05T07:22:08.138Z,70.05
2017-03-05T07:22:48.787Z,69.95
2017-03-05T07:23:29.507Z,70.14
2017-03-05T07:24:10.123Z,70.52
2017-03-05T07:24:50.754Z,70.24
2017-03-05T07:25:31.389Z,70.14
2017-03-05T07:26:12.006Z,70.33
2017-03-05T07:26:52.611Z,70.05
2017-03-05T07:27:33.222Z,70.14
2017-03-05T07:28:13.863Z,70.05
2017-03-05T07:28:54.489Z,70.24
2017-03-05T07:29:35.163Z,70.14
2017-03-05T07:30:15.851Z,70.14
2017-03-05T07:30:56.460Z,70.62
2017-03-05T07:31:37.071Z,70.43
2017-03-05T07:32:17.694Z,70.43
2017-03-05T07:32:58.319Z,69.95
2017-03-05T07:33:38.923Z,70.05
2017-03-05T07:34:19.537Z,70.52
2017-03-05T07:35:00.140Z,70.33
2017-03-05T07:35:40.779Z,70.33
2017-03-05T07:36:21.365Z,70.14
2017-03-05T07:37:02.006Z,70.14
2017-03-05T07:37:42.641Z,70.05
2017-03-05T07:38:23.293Z,70.05
2017-03-05T07:39:03.883Z,70.62
2017-03-05T07:39:44.533Z,70.33
2017-03-05T07:40:25.140Z,70.24
2017-03-05T07:41:05.755Z,70.52
2017-03-05T07:41:46.385Z,70.33
2017-03-05T07:42:26.986Z,70.14
2017-03-05T07:43:07.593Z,70.72
2017-03-05T07:43:48.230Z,70.62
2017-03-05T07:44:28.854Z,70.52
2017-03-05T07:45:09.479Z,70.52
2017-03-05T07:45:50.092Z,70.52
2017-03-05T07:46:30.689Z,71
2017-03-05T07:47:11.310Z,71.09
2017-03-05T07:47:51.947Z,70.52
2017-03-05T07:48:32.554Z,70.81
2017-03-05T07:49:13.151Z,71.09
2017-03-05T07:49:53.756Z,71
2017-03-05T07:50:34.357Z,71.38
2017-03-05T07:51:15.173Z,71.57
2017-03-05T07:51:55.760Z,71.67
2017-03-05T07:52:36.426Z,71.19
2017-03-05T07:53:17.067Z,71.57
2017-03-05T07:53:57.698Z,71.28
2017-03-05T07:54:38.336Z,71.57
2017-03-05T07:55:18.933Z,71.57
2017-03-05T07:55:59.570Z,71.38
2017-03-05T07:56:40.181Z,71.47
2017-03-05T07:57:20.786Z,71.28
2017-03-05T07:58:01.393Z,71.57
2017-03-05T07:58:41.971Z,71.47
2017-03-05T07:59:22.583Z,71.57
2017-03-05T08:00:03.167Z,71.57
2017-03-05T08:00:43.951Z,71.67
2017-03-05T08:01:24.489Z,71.76
2017-03-05T08:02:05.152Z,71.67
2017-03-05T08:02:45.731Z,71.67
2017-03-05T08:03:26.341Z,71.57
2017-03-05T08:04:06.937Z,71.47
2017-03-05T08:04:47.554Z,71.38
2017-03-05T08:05:28.159Z,71.67
2017-03-05T08:06:08.845Z,71.57
2017-03-05T08:06:49.476Z,71.38
2017-03-05T08:07:30.076Z,71.57
2017-03-05T08:08:10.703Z,71.67
2017-03-05T08:08:51.460Z,71.95
2017-03-05T08:09:32.067Z,71.86
2017-03-05T08:10:12.668Z,71.38
2017-03-05T08:10:53.273Z,71.67
2017-03-05T08:11:33.864Z,71.38
2017-03-05T08:12:14.448Z,71.47
2017-03-05T08:12:55.048Z,71.28
2017-03-05T08:13:35.639Z,71.19
2017-03-05T08:14:16.217Z,70.9
2017-03-05T08:14:56.793Z,70.9
2017-03-05T08:15:37.382Z,70.72
2017-03-05T08:16:18.036Z,70.72
2017-03-05T08:16:58.608Z,70.81
2017-03-05T08:17:39.186Z,70.72
2017-03-05T08:18:19.792Z,70.81
2017-03-05T08:19:00.412Z,70.9
2017-03-05T08:19:41.027Z,70.43
2017-03-05T08:20:21.611Z,70.52
2017-03-05T08:21:02.190Z,70.72
2017-03-05T08:21:43.040Z,70.62
2017-03-05T08:22:23.625Z,70.72
2017-03-05T08:23:04.220Z,70.81
2017-03-05T08:23:44.818Z,70.81
2017-03-05T08:24:25.421Z,70.9
2017-03-05T08:25:06.021Z,70.81
2017-03-05T08:25:46.610Z,70.81
2017-03-05T08:26:27.196Z,70.81
2017-03-05T08:27:07.787Z,71.19
2017-03-05T08:27:48.400Z,71.09
2017-03-05T08:28:29.001Z,71.09
2017-03-05T08:29:09.636Z,71.19
2017-03-05T08:29:50.219Z,71.28
2017-03-05T08:30:30.814Z,71.09
2017-03-05T08:31:11.403Z,70.9
2017-03-05T08:31:52.005Z,70.52
2017-03-05T08:32:32.638Z,70.62
2017-03-05T08:33:13.232Z,70.43
2017-03-05T08:33:53.925Z,70.81
2017-03-05T08:34:34.513Z,71
2017-03-05T08:35:15.103Z,70.81
2017-03-05T08:35:55.687Z,70.81
2017-03-05T08:36:36.279Z,70.72
2017-03-05T08:37:16.862Z,70.9
2017-03-05T08:37:57.535Z,70.43
2017-03-05T08:38:38.090Z,70.84
2017-03-05T08:39:18.695Z,70.75
2017-03-05T08:39:59.281Z,70.27
2017-03-05T08:40:40.090Z,70.27
2017-03-05T08:41:20.715Z,70.08
2017-03-05T08:42:01.392Z,70.18
2017-03-05T08:42:42.000Z,69.32
2017-03-05T08:43:22.666Z,70.08
2017-03-05T08:44:03.258Z,69.79
2017-03-05T08:44:43.851Z,69.51